﻿<?xml version="1.0" encoding="UTF-8" standalone="no" ?>
<gpx xmlns="http://www.topografix.com/GPX/1/1" creator="CompeGPS" version="1.1" xmlns:xsi="http://www.w3.org/2001/XMLSchema-instance" xsi:schemaLocation="http://www.topografix.com/GPX/1/1 http://www.topografix.com/GPX/1/1/gpx.xsd http://www.garmin.com/xmlschemas/GpxExtensions/v3 http://www.garmin.com/xmlschemas/GpxExtensionsv3.xsd http://www.garmin.com/xmlschemas/TrackPointExtension/v1 http://www.garmin.com/xmlschemas/TrackPointExtensionv1.xsd" xmlns:gpxtpx="http://www.garmin.com/xmlschemas/TrackPointExtension/v1">
  <metadata>
    <link href="http://www.compegps.com">
      <text>CompeGPS TEAM, SL</text>
    </link>
    <time>2013-02-09T19:13:18Z</time>
    <bounds maxlat="42.866553" maxlon="1.085442" minlat="42.852758" minlon="1.067220"/>
  </metadata>
<wpt lat="42.863884" lon="1.085439">
<ele>1050</ele>
<name>Parking Bethmale</name>
</wpt>
<wpt lat="42.866553" lon="1.071768">
<ele>1200</ele>
<name>Quitter la piste</name>
</wpt>
<wpt lat="42.860815" lon="1.068921">
<ele>1400</ele>
<name>GR10</name>
</wpt>
<wpt lat="42.852761" lon="1.075831">
<ele>1683</ele>
<name>Cabane Eliet</name>
</wpt>
<trk>
    <name>Cabane Eliet</name>
    <trkseg>
      <trkpt lat="42.863884" lon="1.085439">
        <ele>1050</ele>
        <time>2013-02-02T15:40:51Z</time>
        <name>Parking Bethmale</name>
      </trkpt>
      <trkpt lat="42.863833" lon="1.085386">
        <ele>1051</ele>
        <time>2013-02-02T15:43:05Z</time>
      </trkpt>
      <trkpt lat="42.863790" lon="1.085327">
        <ele>1051.8</ele>
        <time>2013-02-02T15:44:18Z</time>
      </trkpt>
      <trkpt lat="42.863686" lon="1.085246">
        <ele>1052.3</ele>
        <time>2013-02-02T15:44:31Z</time>
      </trkpt>
      <trkpt lat="42.863582" lon="1.085185">
        <ele>1052.3</ele>
        <time>2013-02-02T15:44:43Z</time>
      </trkpt>
      <trkpt lat="42.863475" lon="1.085105">
        <ele>1051.8</ele>
        <time>2013-02-02T15:44:55Z</time>
      </trkpt>
      <trkpt lat="42.863364" lon="1.085046">
        <ele>1051.8</ele>
        <time>2013-02-02T15:45:07Z</time>
      </trkpt>
      <trkpt lat="42.863256" lon="1.084969">
        <ele>1051.8</ele>
        <time>2013-02-02T15:45:18Z</time>
      </trkpt>
      <trkpt lat="42.863126" lon="1.084913">
        <ele>1051.3</ele>
        <time>2013-02-02T15:45:31Z</time>
      </trkpt>
      <trkpt lat="42.862983" lon="1.084878">
        <ele>1051.3</ele>
        <time>2013-02-02T15:45:44Z</time>
      </trkpt>
      <trkpt lat="42.862884" lon="1.084839">
        <ele>1050.9</ele>
        <time>2013-02-02T15:45:56Z</time>
      </trkpt>
      <trkpt lat="42.862752" lon="1.084802">
        <ele>1050.4</ele>
        <time>2013-02-02T15:46:08Z</time>
      </trkpt>
      <trkpt lat="42.862635" lon="1.084785">
        <ele>1049.9</ele>
        <time>2013-02-02T15:46:22Z</time>
      </trkpt>
      <trkpt lat="42.862490" lon="1.084710">
        <ele>1049.9</ele>
        <time>2013-02-02T15:46:35Z</time>
      </trkpt>
      <trkpt lat="42.862414" lon="1.084583">
        <ele>1049.9</ele>
        <time>2013-02-02T15:46:47Z</time>
      </trkpt>
      <trkpt lat="42.862363" lon="1.084463">
        <ele>1049.9</ele>
        <time>2013-02-02T15:46:59Z</time>
      </trkpt>
      <trkpt lat="42.862298" lon="1.084295">
        <ele>1049.9</ele>
        <time>2013-02-02T15:47:12Z</time>
      </trkpt>
      <trkpt lat="42.862246" lon="1.084133">
        <ele>1050.9</ele>
        <time>2013-02-02T15:47:26Z</time>
      </trkpt>
      <trkpt lat="42.862180" lon="1.083913">
        <ele>1052.8</ele>
        <time>2013-02-02T15:47:42Z</time>
      </trkpt>
      <trkpt lat="42.862133" lon="1.083730">
        <ele>1055.2</ele>
        <time>2013-02-02T15:47:59Z</time>
      </trkpt>
      <trkpt lat="42.862097" lon="1.083555">
        <ele>1057.6</ele>
        <time>2013-02-02T15:48:13Z</time>
      </trkpt>
      <trkpt lat="42.862043" lon="1.083419">
        <ele>1058.6</ele>
        <time>2013-02-02T15:48:29Z</time>
      </trkpt>
      <trkpt lat="42.861983" lon="1.083246">
        <ele>1058.6</ele>
        <time>2013-02-02T15:49:01Z</time>
      </trkpt>
      <trkpt lat="42.861899" lon="1.083128">
        <ele>1059.0</ele>
        <time>2013-02-02T15:49:11Z</time>
      </trkpt>
      <trkpt lat="42.861793" lon="1.083018">
        <ele>1060.0</ele>
        <time>2013-02-02T15:49:26Z</time>
      </trkpt>
      <trkpt lat="42.861787" lon="1.082860">
        <ele>1060.5</ele>
        <time>2013-02-02T15:49:41Z</time>
      </trkpt>
      <trkpt lat="42.861839" lon="1.082674">
        <ele>1062.9</ele>
        <time>2013-02-02T15:49:57Z</time>
      </trkpt>
      <trkpt lat="42.861933" lon="1.082609">
        <ele>1063.4</ele>
        <time>2013-02-02T15:50:13Z</time>
      </trkpt>
      <trkpt lat="42.862053" lon="1.082597">
        <ele>1063.4</ele>
        <time>2013-02-02T15:50:31Z</time>
      </trkpt>
      <trkpt lat="42.862175" lon="1.082545">
        <ele>1064.8</ele>
        <time>2013-02-02T15:50:47Z</time>
      </trkpt>
      <trkpt lat="42.862283" lon="1.082467">
        <ele>1065.8</ele>
        <time>2013-02-02T15:51:03Z</time>
      </trkpt>
      <trkpt lat="42.862401" lon="1.082396">
        <ele>1066.7</ele>
        <time>2013-02-02T15:51:20Z</time>
      </trkpt>
      <trkpt lat="42.862515" lon="1.082308">
        <ele>1067.7</ele>
        <time>2013-02-02T15:51:40Z</time>
      </trkpt>
      <trkpt lat="42.862608" lon="1.082199">
        <ele>1067.7</ele>
        <time>2013-02-02T15:51:57Z</time>
      </trkpt>
      <trkpt lat="42.862704" lon="1.082138">
        <ele>1070.1</ele>
        <time>2013-02-02T15:52:13Z</time>
      </trkpt>
      <trkpt lat="42.862840" lon="1.082058">
        <ele>1072.0</ele>
        <time>2013-02-02T15:52:33Z</time>
      </trkpt>
      <trkpt lat="42.862950" lon="1.081979">
        <ele>1073.0</ele>
        <time>2013-02-02T15:52:49Z</time>
      </trkpt>
      <trkpt lat="42.863078" lon="1.081893">
        <ele>1075.4</ele>
        <time>2013-02-02T15:53:08Z</time>
      </trkpt>
      <trkpt lat="42.863303" lon="1.081821">
        <ele>1076.3</ele>
        <time>2013-02-02T15:53:41Z</time>
      </trkpt>
      <trkpt lat="42.863415" lon="1.081797">
        <ele>1077.8</ele>
        <time>2013-02-02T15:54:00Z</time>
      </trkpt>
      <trkpt lat="42.863573" lon="1.081721">
        <ele>1080.2</ele>
        <time>2013-02-02T15:54:23Z</time>
      </trkpt>
      <trkpt lat="42.863673" lon="1.081643">
        <ele>1080.7</ele>
        <time>2013-02-02T15:54:37Z</time>
      </trkpt>
      <trkpt lat="42.863757" lon="1.081564">
        <ele>1081.6</ele>
        <time>2013-02-02T15:54:52Z</time>
      </trkpt>
      <trkpt lat="42.863850" lon="1.081473">
        <ele>1083.1</ele>
        <time>2013-02-02T15:55:09Z</time>
      </trkpt>
      <trkpt lat="42.863950" lon="1.081399">
        <ele>1084.0</ele>
        <time>2013-02-02T15:55:23Z</time>
      </trkpt>
      <trkpt lat="42.864052" lon="1.081306">
        <ele>1085.0</ele>
        <time>2013-02-02T15:55:39Z</time>
      </trkpt>
      <trkpt lat="42.864143" lon="1.081214">
        <ele>1085.9</ele>
        <time>2013-02-02T15:55:54Z</time>
      </trkpt>
      <trkpt lat="42.864219" lon="1.081121">
        <ele>1087.4</ele>
        <time>2013-02-02T15:56:09Z</time>
      </trkpt>
      <trkpt lat="42.864333" lon="1.081056">
        <ele>1088.3</ele>
        <time>2013-02-02T15:56:24Z</time>
      </trkpt>
      <trkpt lat="42.864420" lon="1.080940">
        <ele>1090.3</ele>
        <time>2013-02-02T15:56:38Z</time>
      </trkpt>
      <trkpt lat="42.864499" lon="1.080866">
        <ele>1091.7</ele>
        <time>2013-02-02T15:57:15Z</time>
      </trkpt>
      <trkpt lat="42.864585" lon="1.080761">
        <ele>1094.6</ele>
        <time>2013-02-02T15:57:28Z</time>
      </trkpt>
      <trkpt lat="42.864688" lon="1.080683">
        <ele>1092.2</ele>
        <time>2013-02-02T15:57:42Z</time>
      </trkpt>
      <trkpt lat="42.864800" lon="1.080624">
        <ele>1095.6</ele>
        <time>2013-02-02T15:57:56Z</time>
      </trkpt>
      <trkpt lat="42.864885" lon="1.080531">
        <ele>1096.5</ele>
        <time>2013-02-02T15:58:10Z</time>
      </trkpt>
      <trkpt lat="42.864976" lon="1.080408">
        <ele>1098.0</ele>
        <time>2013-02-02T15:58:22Z</time>
      </trkpt>
      <trkpt lat="42.865077" lon="1.080339">
        <ele>1098.0</ele>
        <time>2013-02-02T15:58:36Z</time>
      </trkpt>
      <trkpt lat="42.865163" lon="1.080339">
        <ele>1100.4</ele>
        <time>2013-02-02T15:58:47Z</time>
      </trkpt>
      <trkpt lat="42.865303" lon="1.080350">
        <ele>1102.3</ele>
        <time>2013-02-02T15:59:01Z</time>
      </trkpt>
      <trkpt lat="42.865410" lon="1.080327">
        <ele>1103.2</ele>
        <time>2013-02-02T15:59:15Z</time>
      </trkpt>
      <trkpt lat="42.865510" lon="1.080285">
        <ele>1104.2</ele>
        <time>2013-02-02T15:59:27Z</time>
      </trkpt>
      <trkpt lat="42.865610" lon="1.080206">
        <ele>1105.7</ele>
        <time>2013-02-02T15:59:38Z</time>
      </trkpt>
      <trkpt lat="42.865696" lon="1.080134">
        <ele>1108.5</ele>
        <time>2013-02-02T15:59:51Z</time>
      </trkpt>
      <trkpt lat="42.865785" lon="1.080050">
        <ele>1108.5</ele>
        <time>2013-02-02T16:00:05Z</time>
      </trkpt>
      <trkpt lat="42.865871" lon="1.079953">
        <ele>1108.5</ele>
        <time>2013-02-02T16:00:19Z</time>
      </trkpt>
      <trkpt lat="42.865944" lon="1.079850">
        <ele>1111.4</ele>
        <time>2013-02-02T16:00:33Z</time>
      </trkpt>
      <trkpt lat="42.866016" lon="1.079646">
        <ele>1111.4</ele>
        <time>2013-02-02T16:00:48Z</time>
      </trkpt>
      <trkpt lat="42.866036" lon="1.079498">
        <ele>1111.4</ele>
        <time>2013-02-02T16:01:02Z</time>
      </trkpt>
      <trkpt lat="42.866052" lon="1.079337">
        <ele>1113.8</ele>
        <time>2013-02-02T16:01:18Z</time>
      </trkpt>
      <trkpt lat="42.866060" lon="1.079187">
        <ele>1115.3</ele>
        <time>2013-02-02T16:01:33Z</time>
      </trkpt>
      <trkpt lat="42.866022" lon="1.079052">
        <ele>1116.7</ele>
        <time>2013-02-02T16:01:47Z</time>
      </trkpt>
      <trkpt lat="42.865963" lon="1.078914">
        <ele>1117.7</ele>
        <time>2013-02-02T16:02:02Z</time>
      </trkpt>
      <trkpt lat="42.865915" lon="1.078772">
        <ele>1119.1</ele>
        <time>2013-02-02T16:02:16Z</time>
      </trkpt>
      <trkpt lat="42.865872" lon="1.078630">
        <ele>1122.5</ele>
        <time>2013-02-02T16:02:31Z</time>
      </trkpt>
      <trkpt lat="42.865817" lon="1.078490">
        <ele>1122.0</ele>
        <time>2013-02-02T16:02:45Z</time>
      </trkpt>
      <trkpt lat="42.865761" lon="1.078365">
        <ele>1121.0</ele>
        <time>2013-02-02T16:02:58Z</time>
      </trkpt>
      <trkpt lat="42.865703" lon="1.078230">
        <ele>1125.8</ele>
        <time>2013-02-02T16:03:12Z</time>
      </trkpt>
      <trkpt lat="42.865630" lon="1.078079">
        <ele>1127.8</ele>
        <time>2013-02-02T16:03:29Z</time>
      </trkpt>
      <trkpt lat="42.865579" lon="1.077904">
        <ele>1128.7</ele>
        <time>2013-02-02T16:03:45Z</time>
      </trkpt>
      <trkpt lat="42.865584" lon="1.077899">
        <ele>1130.7</ele>
        <time>2013-02-02T16:08:03Z</time>
      </trkpt>
      <trkpt lat="42.865474" lon="1.077692">
        <ele>1135.4</ele>
        <time>2013-02-02T16:09:01Z</time>
      </trkpt>
      <trkpt lat="42.865379" lon="1.077525">
        <ele>1135.4</ele>
        <time>2013-02-02T16:09:20Z</time>
      </trkpt>
      <trkpt lat="42.865297" lon="1.077363">
        <ele>1135.9</ele>
        <time>2013-02-02T16:09:36Z</time>
      </trkpt>
      <trkpt lat="42.865255" lon="1.077184">
        <ele>1137.9</ele>
        <time>2013-02-02T16:09:53Z</time>
      </trkpt>
      <trkpt lat="42.865171" lon="1.077045">
        <ele>1138.8</ele>
        <time>2013-02-02T16:10:09Z</time>
      </trkpt>
      <trkpt lat="42.865040" lon="1.076917">
        <ele>1141.7</ele>
        <time>2013-02-02T16:10:26Z</time>
      </trkpt>
      <trkpt lat="42.864953" lon="1.076826">
        <ele>1144.1</ele>
        <time>2013-02-02T16:10:38Z</time>
      </trkpt>
      <trkpt lat="42.864952" lon="1.076627">
        <ele>1144.1</ele>
        <time>2013-02-02T16:10:53Z</time>
      </trkpt>
      <trkpt lat="42.864975" lon="1.076475">
        <ele>1146.5</ele>
        <time>2013-02-02T16:11:07Z</time>
      </trkpt>
      <trkpt lat="42.865014" lon="1.076312">
        <ele>1147.0</ele>
        <time>2013-02-02T16:11:22Z</time>
      </trkpt>
      <trkpt lat="42.865053" lon="1.076144">
        <ele>1147.0</ele>
        <time>2013-02-02T16:11:36Z</time>
      </trkpt>
      <trkpt lat="42.865088" lon="1.076001">
        <ele>1147.5</ele>
        <time>2013-02-02T16:11:50Z</time>
      </trkpt>
      <trkpt lat="42.865096" lon="1.075845">
        <ele>1150.8</ele>
        <time>2013-02-02T16:12:07Z</time>
      </trkpt>
      <trkpt lat="42.864991" lon="1.075765">
        <ele>1152.8</ele>
        <time>2013-02-02T16:12:30Z</time>
      </trkpt>
      <trkpt lat="42.864940" lon="1.075546">
        <ele>1156.6</ele>
        <time>2013-02-02T16:13:33Z</time>
      </trkpt>
      <trkpt lat="42.864894" lon="1.075286">
        <ele>1156.6</ele>
        <time>2013-02-02T16:13:57Z</time>
      </trkpt>
      <trkpt lat="42.864787" lon="1.075144">
        <ele>1157.6</ele>
        <time>2013-02-02T16:14:16Z</time>
      </trkpt>
      <trkpt lat="42.864609" lon="1.074945">
        <ele>1163.3</ele>
        <time>2013-02-02T16:14:46Z</time>
      </trkpt>
      <trkpt lat="42.864445" lon="1.074795">
        <ele>1164.3</ele>
        <time>2013-02-02T16:15:12Z</time>
      </trkpt>
      <trkpt lat="42.864315" lon="1.074676">
        <ele>1165.3</ele>
        <time>2013-02-02T16:15:34Z</time>
      </trkpt>
      <trkpt lat="42.864165" lon="1.074578">
        <ele>1168.1</ele>
        <time>2013-02-02T16:15:57Z</time>
      </trkpt>
      <trkpt lat="42.864033" lon="1.074516">
        <ele>1169.1</ele>
        <time>2013-02-02T16:16:14Z</time>
      </trkpt>
      <trkpt lat="42.863901" lon="1.074435">
        <ele>1169.1</ele>
        <time>2013-02-02T16:16:31Z</time>
      </trkpt>
      <trkpt lat="42.863830" lon="1.074248">
        <ele>1170.1</ele>
        <time>2013-02-02T16:16:53Z</time>
      </trkpt>
      <trkpt lat="42.863847" lon="1.074058">
        <ele>1171.0</ele>
        <time>2013-02-02T16:17:11Z</time>
      </trkpt>
      <trkpt lat="42.863887" lon="1.073904">
        <ele>1174.4</ele>
        <time>2013-02-02T16:17:28Z</time>
      </trkpt>
      <trkpt lat="42.863960" lon="1.073742">
        <ele>1172.9</ele>
        <time>2013-02-02T16:17:46Z</time>
      </trkpt>
      <trkpt lat="42.863983" lon="1.073529">
        <ele>1174.4</ele>
        <time>2013-02-02T16:18:04Z</time>
      </trkpt>
      <trkpt lat="42.864047" lon="1.073380">
        <ele>1175.8</ele>
        <time>2013-02-02T16:18:22Z</time>
      </trkpt>
      <trkpt lat="42.864081" lon="1.073208">
        <ele>1180.2</ele>
        <time>2013-02-02T16:18:43Z</time>
      </trkpt>
      <trkpt lat="42.864151" lon="1.073024">
        <ele>1181.6</ele>
        <time>2013-02-02T16:19:02Z</time>
      </trkpt>
      <trkpt lat="42.864255" lon="1.072897">
        <ele>1180.6</ele>
        <time>2013-02-02T16:19:22Z</time>
      </trkpt>
      <trkpt lat="42.864330" lon="1.072828">
        <ele>1184.0</ele>
        <time>2013-02-02T16:19:39Z</time>
      </trkpt>
      <trkpt lat="42.864373" lon="1.072664">
        <ele>1185.4</ele>
        <time>2013-02-02T16:19:57Z</time>
      </trkpt>
      <trkpt lat="42.864365" lon="1.072494">
        <ele>1185.9</ele>
        <time>2013-02-02T16:20:16Z</time>
      </trkpt>
      <trkpt lat="42.864378" lon="1.072331">
        <ele>1186.9</ele>
        <time>2013-02-02T16:20:34Z</time>
      </trkpt>
      <trkpt lat="42.864367" lon="1.072151">
        <ele>1188.8</ele>
        <time>2013-02-02T16:20:53Z</time>
      </trkpt>
      <trkpt lat="42.864559" lon="1.072089">
        <ele>1190.7</ele>
        <time>2013-02-02T16:21:14Z</time>
      </trkpt>
      <trkpt lat="42.864710" lon="1.072135">
        <ele>1192.2</ele>
        <time>2013-02-02T16:21:30Z</time>
      </trkpt>
      <trkpt lat="42.864839" lon="1.072162">
        <ele>1191.7</ele>
        <time>2013-02-02T16:21:47Z</time>
      </trkpt>
      <trkpt lat="42.864938" lon="1.072169">
        <ele>1193.6</ele>
        <time>2013-02-02T16:22:04Z</time>
      </trkpt>
      <trkpt lat="42.865104" lon="1.072138">
        <ele>1196.0</ele>
        <time>2013-02-02T16:22:26Z</time>
      </trkpt>
      <trkpt lat="42.865310" lon="1.072063">
        <ele>1198.9</ele>
        <time>2013-02-02T16:22:55Z</time>
      </trkpt>
      <trkpt lat="42.865491" lon="1.072042">
        <ele>1199.9</ele>
        <time>2013-02-02T16:23:21Z</time>
      </trkpt>
      <trkpt lat="42.865678" lon="1.072005">
        <ele>1201.8</ele>
        <time>2013-02-02T16:23:45Z</time>
      </trkpt>
      <trkpt lat="42.865888" lon="1.071895">
        <ele>1203.2</ele>
        <time>2013-02-02T16:24:17Z</time>
      </trkpt>
      <trkpt lat="42.866047" lon="1.071846">
        <ele>1204.2</ele>
        <time>2013-02-02T16:24:42Z</time>
      </trkpt>
      <trkpt lat="42.866218" lon="1.071888">
        <ele>1205.6</ele>
        <time>2013-02-02T16:25:03Z</time>
      </trkpt>
      <trkpt lat="42.866365" lon="1.071903">
        <ele>1207.6</ele>
        <time>2013-02-02T16:25:22Z</time>
      </trkpt>
      <trkpt lat="42.866482" lon="1.071848">
        <ele>1208.0</ele>
        <time>2013-02-02T16:25:39Z</time>
      </trkpt>
      <trkpt lat="42.866553" lon="1.071768">
        <ele>1210.0</ele>
        <time>2013-02-02T16:26:04Z</time>
        <name>Quitter la piste</name>
      </trkpt>
      <trkpt lat="42.866510" lon="1.071612">
        <ele>1212.8</ele>
        <time>2013-02-02T16:26:30Z</time>
      </trkpt>
      <trkpt lat="42.866418" lon="1.071558">
        <ele>1210.4</ele>
        <time>2013-02-02T16:26:44Z</time>
      </trkpt>
      <trkpt lat="42.866323" lon="1.071524">
        <ele>1213.3</ele>
        <time>2013-02-02T16:26:58Z</time>
      </trkpt>
      <trkpt lat="42.866229" lon="1.071481">
        <ele>1213.3</ele>
        <time>2013-02-02T16:27:16Z</time>
      </trkpt>
      <trkpt lat="42.866149" lon="1.071479">
        <ele>1219.1</ele>
        <time>2013-02-02T16:27:56Z</time>
      </trkpt>
      <trkpt lat="42.866032" lon="1.071446">
        <ele>1222.0</ele>
        <time>2013-02-02T16:28:17Z</time>
      </trkpt>
      <trkpt lat="42.865893" lon="1.071427">
        <ele>1226.3</ele>
        <time>2013-02-02T16:28:45Z</time>
      </trkpt>
      <trkpt lat="42.865757" lon="1.071341">
        <ele>1230.1</ele>
        <time>2013-02-02T16:29:08Z</time>
      </trkpt>
      <trkpt lat="42.865627" lon="1.071294">
        <ele>1234.5</ele>
        <time>2013-02-02T16:29:32Z</time>
      </trkpt>
      <trkpt lat="42.865507" lon="1.071250">
        <ele>1239.8</ele>
        <time>2013-02-02T16:30:05Z</time>
      </trkpt>
      <trkpt lat="42.865386" lon="1.071108">
        <ele>1245.0</ele>
        <time>2013-02-02T16:30:33Z</time>
      </trkpt>
      <trkpt lat="42.865260" lon="1.071091">
        <ele>1248.4</ele>
        <time>2013-02-02T16:30:55Z</time>
      </trkpt>
      <trkpt lat="42.865218" lon="1.071063">
        <ele>1252.7</ele>
        <time>2013-02-02T16:32:29Z</time>
      </trkpt>
      <trkpt lat="42.865152" lon="1.070956">
        <ele>1253.7</ele>
        <time>2013-02-02T16:36:06Z</time>
      </trkpt>
      <trkpt lat="42.865074" lon="1.070855">
        <ele>1257.5</ele>
        <time>2013-02-02T16:36:27Z</time>
      </trkpt>
      <trkpt lat="42.864991" lon="1.070808">
        <ele>1261.9</ele>
        <time>2013-02-02T16:36:46Z</time>
      </trkpt>
      <trkpt lat="42.864923" lon="1.070710">
        <ele>1264.8</ele>
        <time>2013-02-02T16:37:09Z</time>
      </trkpt>
      <trkpt lat="42.864832" lon="1.070624">
        <ele>1269.1</ele>
        <time>2013-02-02T16:37:28Z</time>
      </trkpt>
      <trkpt lat="42.864780" lon="1.070524">
        <ele>1272.9</ele>
        <time>2013-02-02T16:37:50Z</time>
      </trkpt>
      <trkpt lat="42.864698" lon="1.070440">
        <ele>1275.8</ele>
        <time>2013-02-02T16:38:15Z</time>
      </trkpt>
      <trkpt lat="42.864628" lon="1.070309">
        <ele>1276.8</ele>
        <time>2013-02-02T16:38:41Z</time>
      </trkpt>
      <trkpt lat="42.864554" lon="1.070258">
        <ele>1281.6</ele>
        <time>2013-02-02T16:39:02Z</time>
      </trkpt>
      <trkpt lat="42.864482" lon="1.070162">
        <ele>1284.5</ele>
        <time>2013-02-02T16:39:25Z</time>
      </trkpt>
      <trkpt lat="42.864411" lon="1.070124">
        <ele>1287.3</ele>
        <time>2013-02-02T16:39:44Z</time>
      </trkpt>
      <trkpt lat="42.864334" lon="1.070002">
        <ele>1294.1</ele>
        <time>2013-02-02T16:40:14Z</time>
      </trkpt>
      <trkpt lat="42.864244" lon="1.069942">
        <ele>1293.1</ele>
        <time>2013-02-02T16:40:39Z</time>
      </trkpt>
      <trkpt lat="42.864153" lon="1.069877">
        <ele>1298.4</ele>
        <time>2013-02-02T16:41:08Z</time>
      </trkpt>
      <trkpt lat="42.864059" lon="1.069866">
        <ele>1303.7</ele>
        <time>2013-02-02T16:41:33Z</time>
      </trkpt>
      <trkpt lat="42.863900" lon="1.069771">
        <ele>1311.4</ele>
        <time>2013-02-02T16:42:21Z</time>
      </trkpt>
      <trkpt lat="42.863803" lon="1.069627">
        <ele>1315.7</ele>
        <time>2013-02-02T16:42:52Z</time>
      </trkpt>
      <trkpt lat="42.863754" lon="1.069513">
        <ele>1319.6</ele>
        <time>2013-02-02T16:43:15Z</time>
      </trkpt>
      <trkpt lat="42.863668" lon="1.069508">
        <ele>1322.9</ele>
        <time>2013-02-02T16:43:36Z</time>
      </trkpt>
      <trkpt lat="42.863577" lon="1.069535">
        <ele>1325.3</ele>
        <time>2013-02-02T16:43:54Z</time>
      </trkpt>
      <trkpt lat="42.863501" lon="1.069423">
        <ele>1327.2</ele>
        <time>2013-02-02T16:44:14Z</time>
      </trkpt>
      <trkpt lat="42.863408" lon="1.069355">
        <ele>1329.6</ele>
        <time>2013-02-02T16:44:32Z</time>
      </trkpt>
      <trkpt lat="42.863311" lon="1.069359">
        <ele>1337.3</ele>
        <time>2013-02-02T16:44:53Z</time>
      </trkpt>
      <trkpt lat="42.863216" lon="1.069357">
        <ele>1336.8</ele>
        <time>2013-02-02T16:45:13Z</time>
      </trkpt>
      <trkpt lat="42.863115" lon="1.069263">
        <ele>1341.2</ele>
        <time>2013-02-02T16:45:36Z</time>
      </trkpt>
      <trkpt lat="42.863023" lon="1.069200">
        <ele>1343.1</ele>
        <time>2013-02-02T16:45:56Z</time>
      </trkpt>
      <trkpt lat="42.862922" lon="1.069161">
        <ele>1345.0</ele>
        <time>2013-02-02T16:46:15Z</time>
      </trkpt>
      <trkpt lat="42.862817" lon="1.069052">
        <ele>1350.3</ele>
        <time>2013-02-02T16:46:40Z</time>
      </trkpt>
      <trkpt lat="42.862697" lon="1.069019">
        <ele>1353.2</ele>
        <time>2013-02-02T16:47:00Z</time>
      </trkpt>
      <trkpt lat="42.862591" lon="1.068988">
        <ele>1353.7</ele>
        <time>2013-02-02T16:47:20Z</time>
      </trkpt>
      <trkpt lat="42.862517" lon="1.068851">
        <ele>1357.0</ele>
        <time>2013-02-02T16:47:45Z</time>
      </trkpt>
      <trkpt lat="42.862352" lon="1.068798">
        <ele>1362.8</ele>
        <time>2013-02-02T16:48:34Z</time>
      </trkpt>
      <trkpt lat="42.862238" lon="1.068782">
        <ele>1369.1</ele>
        <time>2013-02-02T16:49:03Z</time>
      </trkpt>
      <trkpt lat="42.862151" lon="1.068745">
        <ele>1372.4</ele>
        <time>2013-02-02T16:49:22Z</time>
      </trkpt>
      <trkpt lat="42.862054" lon="1.068690">
        <ele>1376.8</ele>
        <time>2013-02-02T16:49:46Z</time>
      </trkpt>
      <trkpt lat="42.861960" lon="1.068580">
        <ele>1381.1</ele>
        <time>2013-02-02T16:50:08Z</time>
      </trkpt>
      <trkpt lat="42.861868" lon="1.068535">
        <ele>1379.2</ele>
        <time>2013-02-02T16:53:06Z</time>
      </trkpt>
      <trkpt lat="42.861780" lon="1.068457">
        <ele>1381.6</ele>
        <time>2013-02-02T16:53:59Z</time>
      </trkpt>
      <trkpt lat="42.861698" lon="1.068360">
        <ele>1383.5</ele>
        <time>2013-02-02T16:54:11Z</time>
      </trkpt>
      <trkpt lat="42.861645" lon="1.068278">
        <ele>1387.3</ele>
        <time>2013-02-02T16:54:35Z</time>
      </trkpt>
      <trkpt lat="42.861658" lon="1.068102">
        <ele>1392.1</ele>
        <time>2013-02-02T16:55:04Z</time>
      </trkpt>
      <trkpt lat="42.861626" lon="1.067969">
        <ele>1398.9</ele>
        <time>2013-02-02T16:56:01Z</time>
      </trkpt>
      <trkpt lat="42.861660" lon="1.067819">
        <ele>1402.2</ele>
        <time>2013-02-02T16:57:06Z</time>
      </trkpt>
      <trkpt lat="42.861699" lon="1.067685">
        <ele>1401.7</ele>
        <time>2013-02-02T16:57:56Z</time>
      </trkpt>
      <trkpt lat="42.861744" lon="1.067553">
        <ele>1404.1</ele>
        <time>2013-02-02T16:58:11Z</time>
      </trkpt>
      <trkpt lat="42.861739" lon="1.067388">
        <ele>1407.0</ele>
        <time>2013-02-02T16:58:32Z</time>
      </trkpt>
      <trkpt lat="42.861735" lon="1.067220">
        <ele>1407.5</ele>
        <time>2013-02-02T16:58:48Z</time>
      </trkpt>
      <trkpt lat="42.861685" lon="1.067248">
        <ele>1408.9</ele>
        <time>2013-02-02T17:03:09Z</time>
      </trkpt>
      <trkpt lat="42.861637" lon="1.067357">
        <ele>1407.0</ele>
        <time>2013-02-02T17:03:25Z</time>
      </trkpt>
      <trkpt lat="42.861583" lon="1.067464">
        <ele>1409.9</ele>
        <time>2013-02-02T17:03:38Z</time>
      </trkpt>
      <trkpt lat="42.861524" lon="1.067589">
        <ele>1408.9</ele>
        <time>2013-02-02T17:03:53Z</time>
      </trkpt>
      <trkpt lat="42.861453" lon="1.067710">
        <ele>1411.3</ele>
        <time>2013-02-02T17:04:13Z</time>
      </trkpt>
      <trkpt lat="42.861368" lon="1.067837">
        <ele>1408.5</ele>
        <time>2013-02-02T17:04:30Z</time>
      </trkpt>
      <trkpt lat="42.861283" lon="1.067953">
        <ele>1409.9</ele>
        <time>2013-02-02T17:04:50Z</time>
      </trkpt>
      <trkpt lat="42.861202" lon="1.068080">
        <ele>1411.8</ele>
        <time>2013-02-02T17:05:06Z</time>
      </trkpt>
      <trkpt lat="42.861118" lon="1.068234">
        <ele>1411.3</ele>
        <time>2013-02-02T17:05:33Z</time>
      </trkpt>
      <trkpt lat="42.861054" lon="1.068345">
        <ele>1408.9</ele>
        <time>2013-02-02T17:05:49Z</time>
      </trkpt>
      <trkpt lat="42.860967" lon="1.068610">
        <ele>1405.1</ele>
        <time>2013-02-02T17:06:08Z</time>
      </trkpt>
      <trkpt lat="42.860890" lon="1.068749">
        <ele>1406.6</ele>
        <time>2013-02-02T17:06:27Z</time>
      </trkpt>
      <trkpt lat="42.860815" lon="1.068921">
        <ele>1406.6</ele>
        <time>2013-02-02T17:06:48Z</time>
        <name>GR10</name>
      </trkpt>
      <trkpt lat="42.860748" lon="1.069104">
        <ele>1410.4</ele>
        <time>2013-02-02T17:07:07Z</time>
      </trkpt>
      <trkpt lat="42.860657" lon="1.069205">
        <ele>1411.8</ele>
        <time>2013-02-02T17:07:30Z</time>
      </trkpt>
      <trkpt lat="42.860523" lon="1.069238">
        <ele>1415.7</ele>
        <time>2013-02-02T17:08:13Z</time>
      </trkpt>
      <trkpt lat="42.860365" lon="1.069222">
        <ele>1420.5</ele>
        <time>2013-02-02T17:08:41Z</time>
      </trkpt>
      <trkpt lat="42.860269" lon="1.069255">
        <ele>1424.8</ele>
        <time>2013-02-02T17:09:05Z</time>
      </trkpt>
      <trkpt lat="42.860223" lon="1.069391">
        <ele>1430.6</ele>
        <time>2013-02-02T17:09:34Z</time>
      </trkpt>
      <trkpt lat="42.860188" lon="1.069517">
        <ele>1434.4</ele>
        <time>2013-02-02T17:09:56Z</time>
      </trkpt>
      <trkpt lat="42.860148" lon="1.069635">
        <ele>1439.2</ele>
        <time>2013-02-02T17:10:18Z</time>
      </trkpt>
      <trkpt lat="42.860025" lon="1.069679">
        <ele>1444.5</ele>
        <time>2013-02-02T17:10:41Z</time>
      </trkpt>
      <trkpt lat="42.859895" lon="1.069739">
        <ele>1447.9</ele>
        <time>2013-02-02T17:11:08Z</time>
      </trkpt>
      <trkpt lat="42.859732" lon="1.069836">
        <ele>1450.3</ele>
        <time>2013-02-02T17:11:36Z</time>
      </trkpt>
      <trkpt lat="42.859744" lon="1.070011">
        <ele>1451.2</ele>
        <time>2013-02-02T17:12:01Z</time>
      </trkpt>
      <trkpt lat="42.859751" lon="1.070112">
        <ele>1456.5</ele>
        <time>2013-02-02T17:12:19Z</time>
      </trkpt>
      <trkpt lat="42.859734" lon="1.070263">
        <ele>1458.5</ele>
        <time>2013-02-02T17:12:36Z</time>
      </trkpt>
      <trkpt lat="42.859684" lon="1.070466">
        <ele>1459.4</ele>
        <time>2013-02-02T17:13:01Z</time>
      </trkpt>
      <trkpt lat="42.859670" lon="1.070732">
        <ele>1465.7</ele>
        <time>2013-02-02T17:13:35Z</time>
      </trkpt>
      <trkpt lat="42.859612" lon="1.070909">
        <ele>1468.6</ele>
        <time>2013-02-02T17:13:59Z</time>
      </trkpt>
      <trkpt lat="42.859483" lon="1.070954">
        <ele>1472.4</ele>
        <time>2013-02-02T17:14:20Z</time>
      </trkpt>
      <trkpt lat="42.859314" lon="1.070986">
        <ele>1473.8</ele>
        <time>2013-02-02T17:14:41Z</time>
      </trkpt>
      <trkpt lat="42.859162" lon="1.070981">
        <ele>1477.7</ele>
        <time>2013-02-02T17:15:01Z</time>
      </trkpt>
      <trkpt lat="42.859025" lon="1.071097">
        <ele>1482.0</ele>
        <time>2013-02-02T17:15:23Z</time>
      </trkpt>
      <trkpt lat="42.858924" lon="1.071188">
        <ele>1483.9</ele>
        <time>2013-02-02T17:15:44Z</time>
      </trkpt>
      <trkpt lat="42.858893" lon="1.071295">
        <ele>1485.8</ele>
        <time>2013-02-02T17:16:03Z</time>
      </trkpt>
      <trkpt lat="42.858805" lon="1.071347">
        <ele>1485.8</ele>
        <time>2013-02-02T17:16:31Z</time>
      </trkpt>
      <trkpt lat="42.858696" lon="1.071418">
        <ele>1485.8</ele>
        <time>2013-02-02T17:16:44Z</time>
      </trkpt>
      <trkpt lat="42.858595" lon="1.071506">
        <ele>1485.4</ele>
        <time>2013-02-02T17:16:58Z</time>
      </trkpt>
      <trkpt lat="42.858487" lon="1.071605">
        <ele>1483.0</ele>
        <time>2013-02-02T17:17:13Z</time>
      </trkpt>
      <trkpt lat="42.858365" lon="1.071689">
        <ele>1478.2</ele>
        <time>2013-02-02T17:17:30Z</time>
      </trkpt>
      <trkpt lat="42.858249" lon="1.071781">
        <ele>1474.8</ele>
        <time>2013-02-02T17:17:48Z</time>
      </trkpt>
      <trkpt lat="42.858071" lon="1.071970">
        <ele>1474.8</ele>
        <time>2013-02-02T17:18:07Z</time>
      </trkpt>
      <trkpt lat="42.857952" lon="1.072056">
        <ele>1472.4</ele>
        <time>2013-02-02T17:18:21Z</time>
      </trkpt>
      <trkpt lat="42.857841" lon="1.072183">
        <ele>1473.8</ele>
        <time>2013-02-02T17:18:40Z</time>
      </trkpt>
      <trkpt lat="42.857771" lon="1.072256">
        <ele>1474.3</ele>
        <time>2013-02-02T17:18:54Z</time>
      </trkpt>
      <trkpt lat="42.857680" lon="1.072328">
        <ele>1475.8</ele>
        <time>2013-02-02T17:19:09Z</time>
      </trkpt>
      <trkpt lat="42.857590" lon="1.072388">
        <ele>1476.7</ele>
        <time>2013-02-02T17:19:23Z</time>
      </trkpt>
      <trkpt lat="42.857507" lon="1.072583">
        <ele>1476.7</ele>
        <time>2013-02-02T17:19:40Z</time>
      </trkpt>
      <trkpt lat="42.857461" lon="1.072761">
        <ele>1477.7</ele>
        <time>2013-02-02T17:19:56Z</time>
      </trkpt>
      <trkpt lat="42.857399" lon="1.072881">
        <ele>1478.7</ele>
        <time>2013-02-02T17:20:10Z</time>
      </trkpt>
      <trkpt lat="42.857336" lon="1.073016">
        <ele>1479.6</ele>
        <time>2013-02-02T17:20:26Z</time>
      </trkpt>
      <trkpt lat="42.857233" lon="1.073114">
        <ele>1480.1</ele>
        <time>2013-02-02T17:20:45Z</time>
      </trkpt>
      <trkpt lat="42.857144" lon="1.073236">
        <ele>1482.5</ele>
        <time>2013-02-02T17:21:04Z</time>
      </trkpt>
      <trkpt lat="42.857030" lon="1.073341">
        <ele>1484.4</ele>
        <time>2013-02-02T17:21:22Z</time>
      </trkpt>
      <trkpt lat="42.857025" lon="1.073399">
        <ele>1479.6</ele>
        <time>2013-02-02T17:28:51Z</time>
      </trkpt>
      <trkpt lat="42.856927" lon="1.073570">
        <ele>1481.1</ele>
        <time>2013-02-02T17:29:05Z</time>
      </trkpt>
      <trkpt lat="42.856821" lon="1.073612">
        <ele>1482.5</ele>
        <time>2013-02-02T17:29:22Z</time>
      </trkpt>
      <trkpt lat="42.856727" lon="1.073685">
        <ele>1485.4</ele>
        <time>2013-02-02T17:29:45Z</time>
      </trkpt>
      <trkpt lat="42.856636" lon="1.073771">
        <ele>1488.7</ele>
        <time>2013-02-02T17:30:03Z</time>
      </trkpt>
      <trkpt lat="42.856516" lon="1.073884">
        <ele>1491.6</ele>
        <time>2013-02-02T17:30:22Z</time>
      </trkpt>
      <trkpt lat="42.856427" lon="1.073995">
        <ele>1494.5</ele>
        <time>2013-02-02T17:30:39Z</time>
      </trkpt>
      <trkpt lat="42.856325" lon="1.073976">
        <ele>1497.4</ele>
        <time>2013-02-02T17:31:31Z</time>
      </trkpt>
      <trkpt lat="42.856246" lon="1.074146">
        <ele>1500.3</ele>
        <time>2013-02-02T17:31:48Z</time>
      </trkpt>
      <trkpt lat="42.856148" lon="1.074257">
        <ele>1504.1</ele>
        <time>2013-02-02T17:32:08Z</time>
      </trkpt>
      <trkpt lat="42.856088" lon="1.074369">
        <ele>1507.0</ele>
        <time>2013-02-02T17:32:27Z</time>
      </trkpt>
      <trkpt lat="42.856088" lon="1.074464">
        <ele>1509.4</ele>
        <time>2013-02-02T17:32:45Z</time>
      </trkpt>
      <trkpt lat="42.856020" lon="1.074516">
        <ele>1512.3</ele>
        <time>2013-02-02T17:33:12Z</time>
      </trkpt>
      <trkpt lat="42.855908" lon="1.074613">
        <ele>1514.2</ele>
        <time>2013-02-02T17:33:32Z</time>
      </trkpt>
      <trkpt lat="42.855821" lon="1.074691">
        <ele>1516.6</ele>
        <time>2013-02-02T17:33:55Z</time>
      </trkpt>
      <trkpt lat="42.855736" lon="1.074784">
        <ele>1518.5</ele>
        <time>2013-02-02T17:34:09Z</time>
      </trkpt>
      <trkpt lat="42.855611" lon="1.074844">
        <ele>1519.0</ele>
        <time>2013-02-02T17:34:24Z</time>
      </trkpt>
      <trkpt lat="42.855438" lon="1.074873">
        <ele>1520.5</ele>
        <time>2013-02-02T17:34:45Z</time>
      </trkpt>
      <trkpt lat="42.855315" lon="1.074928">
        <ele>1523.3</ele>
        <time>2013-02-02T17:35:08Z</time>
      </trkpt>
      <trkpt lat="42.855150" lon="1.075026">
        <ele>1524.8</ele>
        <time>2013-02-02T17:35:55Z</time>
      </trkpt>
      <trkpt lat="42.855146" lon="1.075115">
        <ele>1528.6</ele>
        <time>2013-02-02T17:36:21Z</time>
      </trkpt>
      <trkpt lat="42.855011" lon="1.075130">
        <ele>1547.2</ele>
        <time>2013-02-02T17:37:06Z</time>
      </trkpt>
      <trkpt lat="42.854845" lon="1.075076">
        <ele>1543.5</ele>
        <time>2013-02-02T17:38:23Z</time>
      </trkpt>
      <trkpt lat="42.854830" lon="1.074964">
        <ele>1544.0</ele>
        <time>2013-02-02T18:50:26Z</time>
      </trkpt>
      <trkpt lat="42.854804" lon="1.074848">
        <ele>1548.5</ele>
        <time>2013-02-02T18:52:02Z</time>
      </trkpt>
      <trkpt lat="42.854671" lon="1.074881">
        <ele>1556.0</ele>
        <time>2013-02-02T18:56:45Z</time>
      </trkpt>
      <trkpt lat="42.854612" lon="1.074875">
        <ele>1563.2</ele>
        <time>2013-02-02T18:58:04Z</time>
      </trkpt>
      <trkpt lat="42.854472" lon="1.074803">
        <ele>1568.1</ele>
        <time>2013-02-02T19:00:08Z</time>
      </trkpt>
      <trkpt lat="42.854392" lon="1.074763">
        <ele>1560.3</ele>
        <time>2013-02-02T19:01:29Z</time>
      </trkpt>
      <trkpt lat="42.854355" lon="1.074671">
        <ele>1582.0</ele>
        <time>2013-02-02T19:04:08Z</time>
      </trkpt>
      <trkpt lat="42.854317" lon="1.074673">
        <ele>1586.3</ele>
        <time>2013-02-02T19:05:23Z</time>
      </trkpt>
      <trkpt lat="42.854244" lon="1.074529">
        <ele>1596.4</ele>
        <time>2013-02-02T19:07:11Z</time>
      </trkpt>
      <trkpt lat="42.854279" lon="1.074393">
        <ele>1563.3</ele>
        <time>2013-02-02T19:08:08Z</time>
      </trkpt>
      <trkpt lat="42.854160" lon="1.074358">
        <ele>1606.0</ele>
        <time>2013-02-02T19:10:34Z</time>
      </trkpt>
      <trkpt lat="42.854040" lon="1.074348">
        <ele>1611.3</ele>
        <time>2013-02-02T19:11:37Z</time>
      </trkpt>
      <trkpt lat="42.853929" lon="1.074257">
        <ele>1620.0</ele>
        <time>2013-02-02T19:12:49Z</time>
      </trkpt>
      <trkpt lat="42.853844" lon="1.074229">
        <ele>1624.3</ele>
        <time>2013-02-02T19:13:48Z</time>
      </trkpt>
      <trkpt lat="42.853778" lon="1.074336">
        <ele>1631.0</ele>
        <time>2013-02-02T19:15:16Z</time>
      </trkpt>
      <trkpt lat="42.853694" lon="1.074313">
        <ele>1632.0</ele>
        <time>2013-02-02T19:16:25Z</time>
      </trkpt>
      <trkpt lat="42.853611" lon="1.074404">
        <ele>1640.2</ele>
        <time>2013-02-02T19:20:05Z</time>
      </trkpt>
      <trkpt lat="42.853567" lon="1.074424">
        <ele>1646.4</ele>
        <time>2013-02-02T19:21:58Z</time>
      </trkpt>
      <trkpt lat="42.853512" lon="1.074461">
        <ele>1651.2</ele>
        <time>2013-02-02T19:25:45Z</time>
      </trkpt>
      <trkpt lat="42.853456" lon="1.074450">
        <ele>1652.6</ele>
        <time>2013-02-02T19:26:28Z</time>
      </trkpt>
      <trkpt lat="42.853377" lon="1.074471">
        <ele>1655.5</ele>
        <time>2013-02-02T19:27:10Z</time>
      </trkpt>
      <trkpt lat="42.853297" lon="1.074569">
        <ele>1659.8</ele>
        <time>2013-02-02T19:28:21Z</time>
      </trkpt>
      <trkpt lat="42.853189" lon="1.074628">
        <ele>1669.0</ele>
        <time>2013-02-02T19:29:10Z</time>
      </trkpt>
      <trkpt lat="42.853098" lon="1.074734">
        <ele>1627.3</ele>
        <time>2013-02-02T19:29:52Z</time>
      </trkpt>
      <trkpt lat="42.853026" lon="1.074917">
        <ele>1629.6</ele>
        <time>2013-02-02T19:30:10Z</time>
      </trkpt>
      <trkpt lat="42.852987" lon="1.075141">
        <ele>1631.8</ele>
        <time>2013-02-02T19:30:45Z</time>
      </trkpt>
      <trkpt lat="42.852945" lon="1.075314">
        <ele>1635.1</ele>
        <time>2013-02-02T19:31:24Z</time>
      </trkpt>
      <trkpt lat="42.852861" lon="1.075476">
        <ele>1640.5</ele>
        <time>2013-02-02T19:31:43Z</time>
      </trkpt>
      <trkpt lat="42.852811" lon="1.075601">
        <ele>1643.6</ele>
        <time>2013-02-02T19:32:05Z</time>
      </trkpt>
      <trkpt lat="42.852797" lon="1.075655">
        <ele>1644.5</ele>
        <time>2013-02-02T20:20:15Z</time>
      </trkpt>
      <trkpt lat="42.852806" lon="1.075734">
        <ele>1644.5</ele>
        <time>2013-02-02T20:20:31Z</time>
      </trkpt>
      <trkpt lat="42.852790" lon="1.075776">
        <ele>1645.5</ele>
        <time>2013-02-02T20:20:48Z</time>
      </trkpt>
      <trkpt lat="42.852761" lon="1.075831">
        <ele>1647.1</ele>
        <time>2013-02-02T20:21:03Z</time>
        <name>Cabane Eliet</name>
      </trkpt>
      <trkpt lat="42.852758" lon="1.075837">
        <ele>1682.9</ele>
        <time>2013-02-03T09:03:01Z</time>
      </trkpt>
      <trkpt lat="42.852817" lon="1.075758">
        <ele>1683.9</ele>
        <time>2013-02-03T09:05:40Z</time>
      </trkpt>
      <trkpt lat="42.852817" lon="1.075630">
        <ele>1684.4</ele>
        <time>2013-02-03T09:06:10Z</time>
      </trkpt>
      <trkpt lat="42.852856" lon="1.075519">
        <ele>1684.8</ele>
        <time>2013-02-03T09:06:29Z</time>
      </trkpt>
      <trkpt lat="42.852926" lon="1.075428">
        <ele>1682.9</ele>
        <time>2013-02-03T09:06:44Z</time>
      </trkpt>
      <trkpt lat="42.852971" lon="1.075310">
        <ele>1682.0</ele>
        <time>2013-02-03T09:07:00Z</time>
      </trkpt>
      <trkpt lat="42.852997" lon="1.075197">
        <ele>1680.5</ele>
        <time>2013-02-03T09:07:13Z</time>
      </trkpt>
      <trkpt lat="42.853017" lon="1.075064">
        <ele>1677.6</ele>
        <time>2013-02-03T09:07:28Z</time>
      </trkpt>
      <trkpt lat="42.853045" lon="1.074941">
        <ele>1676.7</ele>
        <time>2013-02-03T09:07:40Z</time>
      </trkpt>
      <trkpt lat="42.853100" lon="1.074824">
        <ele>1676.2</ele>
        <time>2013-02-03T09:08:00Z</time>
      </trkpt>
      <trkpt lat="42.853133" lon="1.074709">
        <ele>1676.2</ele>
        <time>2013-02-03T09:08:55Z</time>
      </trkpt>
      <trkpt lat="42.853158" lon="1.074585">
        <ele>1675.7</ele>
        <time>2013-02-03T09:09:21Z</time>
      </trkpt>
      <trkpt lat="42.853134" lon="1.074431">
        <ele>1678.6</ele>
        <time>2013-02-03T09:09:44Z</time>
      </trkpt>
      <trkpt lat="42.853187" lon="1.074324">
        <ele>1676.7</ele>
        <time>2013-02-03T09:10:01Z</time>
      </trkpt>
      <trkpt lat="42.853279" lon="1.074282">
        <ele>1671.4</ele>
        <time>2013-02-03T09:10:19Z</time>
      </trkpt>
      <trkpt lat="42.853367" lon="1.074222">
        <ele>1665.6</ele>
        <time>2013-02-03T09:10:34Z</time>
      </trkpt>
      <trkpt lat="42.853413" lon="1.074216">
        <ele>1661.8</ele>
        <time>2013-02-03T09:11:07Z</time>
      </trkpt>
      <trkpt lat="42.853468" lon="1.074183">
        <ele>1658.9</ele>
        <time>2013-02-03T09:11:52Z</time>
      </trkpt>
      <trkpt lat="42.853528" lon="1.074137">
        <ele>1655.5</ele>
        <time>2013-02-03T09:13:38Z</time>
      </trkpt>
      <trkpt lat="42.853608" lon="1.074086">
        <ele>1651.7</ele>
        <time>2013-02-03T09:13:54Z</time>
      </trkpt>
      <trkpt lat="42.853673" lon="1.074126">
        <ele>1644.9</ele>
        <time>2013-02-03T09:14:13Z</time>
      </trkpt>
      <trkpt lat="42.853787" lon="1.074162">
        <ele>1636.8</ele>
        <time>2013-02-03T09:14:34Z</time>
      </trkpt>
      <trkpt lat="42.853840" lon="1.074223">
        <ele>1634.9</ele>
        <time>2013-02-03T09:16:19Z</time>
      </trkpt>
      <trkpt lat="42.853961" lon="1.074270">
        <ele>1628.6</ele>
        <time>2013-02-03T09:16:28Z</time>
      </trkpt>
      <trkpt lat="42.854074" lon="1.074294">
        <ele>1622.4</ele>
        <time>2013-02-03T09:16:36Z</time>
      </trkpt>
      <trkpt lat="42.854153" lon="1.074296">
        <ele>1616.1</ele>
        <time>2013-02-03T09:16:43Z</time>
      </trkpt>
      <trkpt lat="42.854219" lon="1.074299">
        <ele>1610.8</ele>
        <time>2013-02-03T09:16:50Z</time>
      </trkpt>
      <trkpt lat="42.854229" lon="1.074308">
        <ele>1606.5</ele>
        <time>2013-02-03T09:17:08Z</time>
      </trkpt>
      <trkpt lat="42.854284" lon="1.074322">
        <ele>1605.1</ele>
        <time>2013-02-03T09:20:07Z</time>
      </trkpt>
      <trkpt lat="42.854365" lon="1.074425">
        <ele>1600.2</ele>
        <time>2013-02-03T09:20:24Z</time>
      </trkpt>
      <trkpt lat="42.854329" lon="1.074618">
        <ele>1595.9</ele>
        <time>2013-02-03T09:20:46Z</time>
      </trkpt>
      <trkpt lat="42.854364" lon="1.074772">
        <ele>1586.8</ele>
        <time>2013-02-03T09:21:21Z</time>
      </trkpt>
      <trkpt lat="42.854449" lon="1.074831">
        <ele>1579.6</ele>
        <time>2013-02-03T09:21:41Z</time>
      </trkpt>
      <trkpt lat="42.854556" lon="1.074837">
        <ele>1572.4</ele>
        <time>2013-02-03T09:21:58Z</time>
      </trkpt>
      <trkpt lat="42.854608" lon="1.074799">
        <ele>1567.1</ele>
        <time>2013-02-03T09:23:12Z</time>
      </trkpt>
      <trkpt lat="42.854681" lon="1.074889">
        <ele>1563.7</ele>
        <time>2013-02-03T09:25:09Z</time>
      </trkpt>
      <trkpt lat="42.854801" lon="1.074980">
        <ele>1555.1</ele>
        <time>2013-02-03T09:25:23Z</time>
      </trkpt>
      <trkpt lat="42.854874" lon="1.075106">
        <ele>1548.3</ele>
        <time>2013-02-03T09:25:42Z</time>
      </trkpt>
      <trkpt lat="42.854986" lon="1.075073">
        <ele>1540.7</ele>
        <time>2013-02-03T09:26:06Z</time>
      </trkpt>
      <trkpt lat="42.855040" lon="1.075062">
        <ele>1537.3</ele>
        <time>2013-02-03T09:26:38Z</time>
      </trkpt>
      <trkpt lat="42.855160" lon="1.075004">
        <ele>1532.0</ele>
        <time>2013-02-03T09:26:47Z</time>
      </trkpt>
      <trkpt lat="42.855269" lon="1.074929">
        <ele>1527.7</ele>
        <time>2013-02-03T09:26:58Z</time>
      </trkpt>
      <trkpt lat="42.855385" lon="1.074883">
        <ele>1522.4</ele>
        <time>2013-02-03T09:27:12Z</time>
      </trkpt>
      <trkpt lat="42.855502" lon="1.074848">
        <ele>1520.5</ele>
        <time>2013-02-03T09:27:25Z</time>
      </trkpt>
      <trkpt lat="42.855648" lon="1.074758">
        <ele>1518.5</ele>
        <time>2013-02-03T09:27:40Z</time>
      </trkpt>
      <trkpt lat="42.855789" lon="1.074729">
        <ele>1518.1</ele>
        <time>2013-02-03T09:27:57Z</time>
      </trkpt>
      <trkpt lat="42.855750" lon="1.074714">
        <ele>1518.1</ele>
        <time>2013-02-03T09:30:04Z</time>
      </trkpt>
      <trkpt lat="42.855870" lon="1.074617">
        <ele>1517.1</ele>
        <time>2013-02-03T09:30:17Z</time>
      </trkpt>
      <trkpt lat="42.855999" lon="1.074555">
        <ele>1513.7</ele>
        <time>2013-02-03T09:30:27Z</time>
      </trkpt>
      <trkpt lat="42.856088" lon="1.074390">
        <ele>1509.4</ele>
        <time>2013-02-03T09:30:39Z</time>
      </trkpt>
      <trkpt lat="42.856153" lon="1.074265">
        <ele>1503.6</ele>
        <time>2013-02-03T09:30:50Z</time>
      </trkpt>
      <trkpt lat="42.856224" lon="1.074150">
        <ele>1501.7</ele>
        <time>2013-02-03T09:31:00Z</time>
      </trkpt>
      <trkpt lat="42.856318" lon="1.074094">
        <ele>1497.9</ele>
        <time>2013-02-03T09:31:12Z</time>
      </trkpt>
      <trkpt lat="42.856404" lon="1.073993">
        <ele>1495.5</ele>
        <time>2013-02-03T09:31:24Z</time>
      </trkpt>
      <trkpt lat="42.856487" lon="1.073870">
        <ele>1493.6</ele>
        <time>2013-02-03T09:31:34Z</time>
      </trkpt>
      <trkpt lat="42.856579" lon="1.073796">
        <ele>1492.1</ele>
        <time>2013-02-03T09:31:43Z</time>
      </trkpt>
      <trkpt lat="42.856664" lon="1.073700">
        <ele>1488.7</ele>
        <time>2013-02-03T09:31:54Z</time>
      </trkpt>
      <trkpt lat="42.856751" lon="1.073594">
        <ele>1485.8</ele>
        <time>2013-02-03T09:32:05Z</time>
      </trkpt>
      <trkpt lat="42.856837" lon="1.073514">
        <ele>1483.9</ele>
        <time>2013-02-03T09:32:14Z</time>
      </trkpt>
      <trkpt lat="42.856921" lon="1.073452">
        <ele>1481.1</ele>
        <time>2013-02-03T09:32:24Z</time>
      </trkpt>
      <trkpt lat="42.857025" lon="1.073348">
        <ele>1478.2</ele>
        <time>2013-02-03T09:32:36Z</time>
      </trkpt>
      <trkpt lat="42.857144" lon="1.073221">
        <ele>1476.2</ele>
        <time>2013-02-03T09:32:47Z</time>
      </trkpt>
      <trkpt lat="42.857251" lon="1.073089">
        <ele>1474.3</ele>
        <time>2013-02-03T09:33:00Z</time>
      </trkpt>
      <trkpt lat="42.857333" lon="1.072951">
        <ele>1471.9</ele>
        <time>2013-02-03T09:33:11Z</time>
      </trkpt>
      <trkpt lat="42.857379" lon="1.072816">
        <ele>1471.4</ele>
        <time>2013-02-03T09:33:24Z</time>
      </trkpt>
      <trkpt lat="42.857444" lon="1.072664">
        <ele>1471.9</ele>
        <time>2013-02-03T09:33:38Z</time>
      </trkpt>
      <trkpt lat="42.857517" lon="1.072497">
        <ele>1470.5</ele>
        <time>2013-02-03T09:33:49Z</time>
      </trkpt>
      <trkpt lat="42.857607" lon="1.072386">
        <ele>1468.6</ele>
        <time>2013-02-03T09:34:01Z</time>
      </trkpt>
      <trkpt lat="42.857729" lon="1.072304">
        <ele>1467.6</ele>
        <time>2013-02-03T09:34:16Z</time>
      </trkpt>
      <trkpt lat="42.857798" lon="1.072170">
        <ele>1467.6</ele>
        <time>2013-02-03T09:34:28Z</time>
      </trkpt>
      <trkpt lat="42.857846" lon="1.072140">
        <ele>1467.6</ele>
        <time>2013-02-03T09:34:50Z</time>
      </trkpt>
      <trkpt lat="42.858002" lon="1.072018">
        <ele>1467.1</ele>
        <time>2013-02-03T09:35:13Z</time>
      </trkpt>
      <trkpt lat="42.858171" lon="1.071959">
        <ele>1468.6</ele>
        <time>2013-02-03T09:35:37Z</time>
      </trkpt>
      <trkpt lat="42.858390" lon="1.071807">
        <ele>1471.4</ele>
        <time>2013-02-03T09:36:01Z</time>
      </trkpt>
      <trkpt lat="42.858496" lon="1.071662">
        <ele>1475.3</ele>
        <time>2013-02-03T09:36:26Z</time>
      </trkpt>
      <trkpt lat="42.858625" lon="1.071548">
        <ele>1479.1</ele>
        <time>2013-02-03T09:36:48Z</time>
      </trkpt>
      <trkpt lat="42.858787" lon="1.071459">
        <ele>1480.6</ele>
        <time>2013-02-03T09:37:20Z</time>
      </trkpt>
      <trkpt lat="42.858892" lon="1.071287">
        <ele>1481.1</ele>
        <time>2013-02-03T09:37:38Z</time>
      </trkpt>
      <trkpt lat="42.858994" lon="1.071138">
        <ele>1477.7</ele>
        <time>2013-02-03T09:37:52Z</time>
      </trkpt>
      <trkpt lat="42.859118" lon="1.071062">
        <ele>1473.8</ele>
        <time>2013-02-03T09:38:09Z</time>
      </trkpt>
      <trkpt lat="42.859263" lon="1.071018">
        <ele>1470.5</ele>
        <time>2013-02-03T09:38:26Z</time>
      </trkpt>
      <trkpt lat="42.859394" lon="1.070984">
        <ele>1467.6</ele>
        <time>2013-02-03T09:38:46Z</time>
      </trkpt>
      <trkpt lat="42.859572" lon="1.070965">
        <ele>1465.7</ele>
        <time>2013-02-03T09:40:55Z</time>
      </trkpt>
      <trkpt lat="42.859654" lon="1.070756">
        <ele>1462.3</ele>
        <time>2013-02-03T09:45:54Z</time>
      </trkpt>
      <trkpt lat="42.859689" lon="1.070462">
        <ele>1456.5</ele>
        <time>2013-02-03T09:46:16Z</time>
      </trkpt>
      <trkpt lat="42.859752" lon="1.070216">
        <ele>1452.2</ele>
        <time>2013-02-03T09:46:33Z</time>
      </trkpt>
      <trkpt lat="42.859775" lon="1.070051">
        <ele>1450.8</ele>
        <time>2013-02-03T09:46:50Z</time>
      </trkpt>
      <trkpt lat="42.859801" lon="1.069894">
        <ele>1448.4</ele>
        <time>2013-02-03T09:47:03Z</time>
      </trkpt>
      <trkpt lat="42.859890" lon="1.069771">
        <ele>1444.0</ele>
        <time>2013-02-03T09:47:14Z</time>
      </trkpt>
      <trkpt lat="42.860080" lon="1.069741">
        <ele>1438.3</ele>
        <time>2013-02-03T09:47:31Z</time>
      </trkpt>
      <trkpt lat="42.860231" lon="1.069610">
        <ele>1433.0</ele>
        <time>2013-02-03T09:47:46Z</time>
      </trkpt>
      <trkpt lat="42.860294" lon="1.069427">
        <ele>1426.2</ele>
        <time>2013-02-03T09:48:00Z</time>
      </trkpt>
      <trkpt lat="42.860372" lon="1.069315">
        <ele>1420.5</ele>
        <time>2013-02-03T09:48:15Z</time>
      </trkpt>
      <trkpt lat="42.860509" lon="1.069358">
        <ele>1413.3</ele>
        <time>2013-02-03T09:48:33Z</time>
      </trkpt>
      <trkpt lat="42.860638" lon="1.069305">
        <ele>1408.0</ele>
        <time>2013-02-03T09:48:52Z</time>
      </trkpt>
      <trkpt lat="42.860723" lon="1.069205">
        <ele>1405.1</ele>
        <time>2013-02-03T09:49:06Z</time>
      </trkpt>
      <trkpt lat="42.860799" lon="1.069130">
        <ele>1383.2</ele>
        <time>2013-02-03T12:31:15Z</time>
      </trkpt>
      <trkpt lat="42.860916" lon="1.069035">
        <ele>1380.6</ele>
        <time>2013-02-03T12:31:24Z</time>
      </trkpt>
      <trkpt lat="42.861025" lon="1.068919">
        <ele>1379.4</ele>
        <time>2013-02-03T12:31:33Z</time>
      </trkpt>
      <trkpt lat="42.861112" lon="1.068829">
        <ele>1378.1</ele>
        <time>2013-02-03T12:31:42Z</time>
      </trkpt>
      <trkpt lat="42.861220" lon="1.068682">
        <ele>1377.2</ele>
        <time>2013-02-03T12:31:57Z</time>
      </trkpt>
      <trkpt lat="42.861328" lon="1.068590">
        <ele>1375.2</ele>
        <time>2013-02-03T12:32:10Z</time>
      </trkpt>
      <trkpt lat="42.861456" lon="1.068475">
        <ele>1372.8</ele>
        <time>2013-02-03T12:32:21Z</time>
      </trkpt>
      <trkpt lat="42.861568" lon="1.068438">
        <ele>1369.8</ele>
        <time>2013-02-03T12:32:30Z</time>
      </trkpt>
      <trkpt lat="42.861696" lon="1.068413">
        <ele>1366.1</ele>
        <time>2013-02-03T12:32:40Z</time>
      </trkpt>
      <trkpt lat="42.861787" lon="1.068480">
        <ele>1386.8</ele>
        <time>2013-02-03T12:32:51Z</time>
      </trkpt>
      <trkpt lat="42.861860" lon="1.068599">
        <ele>1385.4</ele>
        <time>2013-02-03T12:33:07Z</time>
      </trkpt>
      <trkpt lat="42.861976" lon="1.068547">
        <ele>1384.9</ele>
        <time>2013-02-03T12:34:15Z</time>
      </trkpt>
      <trkpt lat="42.862009" lon="1.068579">
        <ele>1384.0</ele>
        <time>2013-02-03T12:35:13Z</time>
      </trkpt>
      <trkpt lat="42.862036" lon="1.068678">
        <ele>1383.5</ele>
        <time>2013-02-03T12:36:13Z</time>
      </trkpt>
      <trkpt lat="42.862070" lon="1.068730">
        <ele>1382.5</ele>
        <time>2013-02-03T12:44:20Z</time>
      </trkpt>
      <trkpt lat="42.862148" lon="1.068728">
        <ele>1380.1</ele>
        <time>2013-02-03T12:44:30Z</time>
      </trkpt>
      <trkpt lat="42.862234" lon="1.068753">
        <ele>1377.2</ele>
        <time>2013-02-03T12:44:38Z</time>
      </trkpt>
      <trkpt lat="42.862329" lon="1.068789">
        <ele>1373.4</ele>
        <time>2013-02-03T12:44:47Z</time>
      </trkpt>
      <trkpt lat="42.862418" lon="1.068770">
        <ele>1370.5</ele>
        <time>2013-02-03T12:44:55Z</time>
      </trkpt>
      <trkpt lat="42.862482" lon="1.068835">
        <ele>1336.6</ele>
        <time>2013-02-03T12:45:03Z</time>
      </trkpt>
      <trkpt lat="42.862576" lon="1.068918">
        <ele>1332.2</ele>
        <time>2013-02-03T12:45:11Z</time>
      </trkpt>
      <trkpt lat="42.862661" lon="1.068967">
        <ele>1328.8</ele>
        <time>2013-02-03T12:45:20Z</time>
      </trkpt>
      <trkpt lat="42.862740" lon="1.069013">
        <ele>1325.4</ele>
        <time>2013-02-03T12:45:28Z</time>
      </trkpt>
      <trkpt lat="42.862833" lon="1.069020">
        <ele>1353.7</ele>
        <time>2013-02-03T12:45:36Z</time>
      </trkpt>
      <trkpt lat="42.862916" lon="1.069083">
        <ele>1351.8</ele>
        <time>2013-02-03T12:45:44Z</time>
      </trkpt>
      <trkpt lat="42.862996" lon="1.069150">
        <ele>1349.3</ele>
        <time>2013-02-03T12:45:54Z</time>
      </trkpt>
      <trkpt lat="42.863097" lon="1.069193">
        <ele>1346.9</ele>
        <time>2013-02-03T12:46:02Z</time>
      </trkpt>
      <trkpt lat="42.863218" lon="1.069335">
        <ele>1305.3</ele>
        <time>2013-02-03T12:46:36Z</time>
      </trkpt>
      <trkpt lat="42.863314" lon="1.069364">
        <ele>1301.8</ele>
        <time>2013-02-03T12:46:43Z</time>
      </trkpt>
      <trkpt lat="42.863428" lon="1.069351">
        <ele>1298.0</ele>
        <time>2013-02-03T12:46:52Z</time>
      </trkpt>
      <trkpt lat="42.863486" lon="1.069422">
        <ele>1295.3</ele>
        <time>2013-02-03T12:46:58Z</time>
      </trkpt>
      <trkpt lat="42.863533" lon="1.069481">
        <ele>1292.9</ele>
        <time>2013-02-03T12:47:05Z</time>
      </trkpt>
      <trkpt lat="42.863571" lon="1.069493">
        <ele>1291.4</ele>
        <time>2013-02-03T12:47:13Z</time>
      </trkpt>
      <trkpt lat="42.863714" lon="1.069493">
        <ele>1286.4</ele>
        <time>2013-02-03T12:47:20Z</time>
      </trkpt>
      <trkpt lat="42.863771" lon="1.069565">
        <ele>1283.5</ele>
        <time>2013-02-03T12:47:27Z</time>
      </trkpt>
      <trkpt lat="42.863828" lon="1.069662">
        <ele>1280.2</ele>
        <time>2013-02-03T12:47:34Z</time>
      </trkpt>
      <trkpt lat="42.863928" lon="1.069772">
        <ele>1275.2</ele>
        <time>2013-02-03T12:47:41Z</time>
      </trkpt>
      <trkpt lat="42.864028" lon="1.069798">
        <ele>1271.1</ele>
        <time>2013-02-03T12:47:48Z</time>
      </trkpt>
      <trkpt lat="42.864108" lon="1.069896">
        <ele>1266.7</ele>
        <time>2013-02-03T12:47:56Z</time>
      </trkpt>
      <trkpt lat="42.864232" lon="1.069902">
        <ele>1262.2</ele>
        <time>2013-02-03T12:48:03Z</time>
      </trkpt>
      <trkpt lat="42.864313" lon="1.069961">
        <ele>1258.3</ele>
        <time>2013-02-03T12:48:10Z</time>
      </trkpt>
      <trkpt lat="42.864346" lon="1.070077">
        <ele>1256.1</ele>
        <time>2013-02-03T12:48:17Z</time>
      </trkpt>
      <trkpt lat="42.864413" lon="1.070136">
        <ele>1253.4</ele>
        <time>2013-02-03T12:48:25Z</time>
      </trkpt>
      <trkpt lat="42.864574" lon="1.070233">
        <ele>1247.4</ele>
        <time>2013-02-03T12:48:32Z</time>
      </trkpt>
      <trkpt lat="42.864646" lon="1.070369">
        <ele>1244.4</ele>
        <time>2013-02-03T12:48:39Z</time>
      </trkpt>
      <trkpt lat="42.864755" lon="1.070499">
        <ele>1240.3</ele>
        <time>2013-02-03T12:48:47Z</time>
      </trkpt>
      <trkpt lat="42.864836" lon="1.070596">
        <ele>1237.5</ele>
        <time>2013-02-03T12:48:55Z</time>
      </trkpt>
      <trkpt lat="42.864922" lon="1.070732">
        <ele>1234.5</ele>
        <time>2013-02-03T12:49:02Z</time>
      </trkpt>
      <trkpt lat="42.865040" lon="1.070810">
        <ele>1230.5</ele>
        <time>2013-02-03T12:49:10Z</time>
      </trkpt>
      <trkpt lat="42.865140" lon="1.070947">
        <ele>1225.8</ele>
        <time>2013-02-03T12:49:20Z</time>
      </trkpt>
      <trkpt lat="42.865302" lon="1.071135">
        <ele>1219.3</ele>
        <time>2013-02-03T12:49:27Z</time>
      </trkpt>
      <trkpt lat="42.865440" lon="1.071206">
        <ele>1215.2</ele>
        <time>2013-02-03T12:49:34Z</time>
      </trkpt>
      <trkpt lat="42.865601" lon="1.071290">
        <ele>1211.1</ele>
        <time>2013-02-03T12:49:41Z</time>
      </trkpt>
      <trkpt lat="42.865769" lon="1.071334">
        <ele>1207.2</ele>
        <time>2013-02-03T12:52:50Z</time>
      </trkpt>
      <trkpt lat="42.865900" lon="1.071423">
        <ele>1203.9</ele>
        <time>2013-02-03T12:52:59Z</time>
      </trkpt>
      <trkpt lat="42.866216" lon="1.071473">
        <ele>1192.2</ele>
        <time>2013-02-03T12:53:12Z</time>
      </trkpt>
      <trkpt lat="42.866430" lon="1.071550">
        <ele>1185.1</ele>
        <time>2013-02-03T12:53:28Z</time>
      </trkpt>
      <trkpt lat="42.866535" lon="1.071696">
        <ele>1182.6</ele>
        <time>2013-02-03T12:53:45Z</time>
      </trkpt>
      <trkpt lat="42.866483" lon="1.071900">
        <ele>1182.0</ele>
        <time>2013-02-03T12:53:57Z</time>
      </trkpt>
      <trkpt lat="42.865937" lon="1.071930">
        <ele>1198.3</ele>
        <time>2013-02-03T12:54:16Z</time>
      </trkpt>
      <trkpt lat="42.865376" lon="1.072134">
        <ele>1199.9</ele>
        <time>2013-02-03T12:54:32Z</time>
      </trkpt>
      <trkpt lat="42.864943" lon="1.072250">
        <ele>1200.0</ele>
        <time>2013-02-03T12:54:46Z</time>
      </trkpt>
      <trkpt lat="42.864809" lon="1.072225">
        <ele>1201.4</ele>
        <time>2013-02-03T12:54:55Z</time>
      </trkpt>
      <trkpt lat="42.864670" lon="1.072193">
        <ele>1203.9</ele>
        <time>2013-02-03T12:58:16Z</time>
      </trkpt>
      <trkpt lat="42.864574" lon="1.072168">
        <ele>1205.7</ele>
        <time>2013-02-03T12:58:25Z</time>
      </trkpt>
      <trkpt lat="42.864463" lon="1.072187">
        <ele>1205.3</ele>
        <time>2013-02-03T12:58:35Z</time>
      </trkpt>
      <trkpt lat="42.864408" lon="1.072262">
        <ele>1186.4</ele>
        <time>2013-02-03T12:58:45Z</time>
      </trkpt>
      <trkpt lat="42.864386" lon="1.072371">
        <ele>1185.9</ele>
        <time>2013-02-03T12:58:55Z</time>
      </trkpt>
      <trkpt lat="42.864403" lon="1.072535">
        <ele>1185.4</ele>
        <time>2013-02-03T12:59:06Z</time>
      </trkpt>
      <trkpt lat="42.864411" lon="1.072669">
        <ele>1184.5</ele>
        <time>2013-02-03T12:59:14Z</time>
      </trkpt>
      <trkpt lat="42.864380" lon="1.072802">
        <ele>1183.5</ele>
        <time>2013-02-03T12:59:22Z</time>
      </trkpt>
      <trkpt lat="42.864309" lon="1.072932">
        <ele>1182.1</ele>
        <time>2013-02-03T12:59:31Z</time>
      </trkpt>
      <trkpt lat="42.864213" lon="1.073065">
        <ele>1179.2</ele>
        <time>2013-02-03T12:59:42Z</time>
      </trkpt>
      <trkpt lat="42.864128" lon="1.073223">
        <ele>1177.3</ele>
        <time>2013-02-03T12:59:54Z</time>
      </trkpt>
      <trkpt lat="42.864106" lon="1.073415">
        <ele>1175.3</ele>
        <time>2013-02-03T13:00:05Z</time>
      </trkpt>
      <trkpt lat="42.864111" lon="1.073581">
        <ele>1173.9</ele>
        <time>2013-02-03T13:00:14Z</time>
      </trkpt>
      <trkpt lat="42.864060" lon="1.073741">
        <ele>1172.9</ele>
        <time>2013-02-03T13:00:21Z</time>
      </trkpt>
      <trkpt lat="42.864014" lon="1.073885">
        <ele>1172.0</ele>
        <time>2013-02-03T13:00:29Z</time>
      </trkpt>
      <trkpt lat="42.863952" lon="1.074025">
        <ele>1170.5</ele>
        <time>2013-02-03T13:00:37Z</time>
      </trkpt>
      <trkpt lat="42.863904" lon="1.074166">
        <ele>1170.1</ele>
        <time>2013-02-03T13:00:46Z</time>
      </trkpt>
      <trkpt lat="42.863903" lon="1.074357">
        <ele>1168.6</ele>
        <time>2013-02-03T13:00:56Z</time>
      </trkpt>
      <trkpt lat="42.863979" lon="1.074451">
        <ele>1167.7</ele>
        <time>2013-02-03T13:01:04Z</time>
      </trkpt>
      <trkpt lat="42.864099" lon="1.074450">
        <ele>1166.2</ele>
        <time>2013-02-03T13:01:11Z</time>
      </trkpt>
      <trkpt lat="42.864189" lon="1.074495">
        <ele>1165.3</ele>
        <time>2013-02-03T13:01:18Z</time>
      </trkpt>
      <trkpt lat="42.864277" lon="1.074542">
        <ele>1164.3</ele>
        <time>2013-02-03T13:01:25Z</time>
      </trkpt>
      <trkpt lat="42.864373" lon="1.074597">
        <ele>1162.8</ele>
        <time>2013-02-03T13:01:32Z</time>
      </trkpt>
      <trkpt lat="42.864474" lon="1.074647">
        <ele>1162.4</ele>
        <time>2013-02-03T13:01:39Z</time>
      </trkpt>
      <trkpt lat="42.864585" lon="1.074729">
        <ele>1160.9</ele>
        <time>2013-02-03T13:01:47Z</time>
      </trkpt>
      <trkpt lat="42.864673" lon="1.074794">
        <ele>1160.0</ele>
        <time>2013-02-03T13:01:54Z</time>
      </trkpt>
      <trkpt lat="42.864771" lon="1.074891">
        <ele>1158.5</ele>
        <time>2013-02-03T13:02:02Z</time>
      </trkpt>
      <trkpt lat="42.864843" lon="1.074989">
        <ele>1157.1</ele>
        <time>2013-02-03T13:02:10Z</time>
      </trkpt>
      <trkpt lat="42.864907" lon="1.075104">
        <ele>1156.1</ele>
        <time>2013-02-03T13:02:18Z</time>
      </trkpt>
      <trkpt lat="42.864966" lon="1.075221">
        <ele>1155.2</ele>
        <time>2013-02-03T13:02:27Z</time>
      </trkpt>
      <trkpt lat="42.865001" lon="1.075378">
        <ele>1153.7</ele>
        <time>2013-02-03T13:02:36Z</time>
      </trkpt>
      <trkpt lat="42.865041" lon="1.075545">
        <ele>1152.3</ele>
        <time>2013-02-03T13:02:45Z</time>
      </trkpt>
      <trkpt lat="42.865095" lon="1.075702">
        <ele>1150.8</ele>
        <time>2013-02-03T13:02:54Z</time>
      </trkpt>
      <trkpt lat="42.865137" lon="1.075844">
        <ele>1149.4</ele>
        <time>2013-02-03T13:03:02Z</time>
      </trkpt>
      <trkpt lat="42.865141" lon="1.076004">
        <ele>1147.5</ele>
        <time>2013-02-03T13:03:10Z</time>
      </trkpt>
      <trkpt lat="42.865110" lon="1.076180">
        <ele>1146.0</ele>
        <time>2013-02-03T13:03:19Z</time>
      </trkpt>
      <trkpt lat="42.865046" lon="1.076352">
        <ele>1144.6</ele>
        <time>2013-02-03T13:03:29Z</time>
      </trkpt>
      <trkpt lat="42.865005" lon="1.076513">
        <ele>1143.1</ele>
        <time>2013-02-03T13:03:39Z</time>
      </trkpt>
      <trkpt lat="42.864968" lon="1.076702">
        <ele>1141.7</ele>
        <time>2013-02-03T13:03:50Z</time>
      </trkpt>
      <trkpt lat="42.864991" lon="1.076856">
        <ele>1140.7</ele>
        <time>2013-02-03T13:03:59Z</time>
      </trkpt>
      <trkpt lat="42.865058" lon="1.076971">
        <ele>1139.8</ele>
        <time>2013-02-03T13:04:06Z</time>
      </trkpt>
      <trkpt lat="42.865127" lon="1.077066">
        <ele>1138.3</ele>
        <time>2013-02-03T13:04:13Z</time>
      </trkpt>
      <trkpt lat="42.865229" lon="1.077142">
        <ele>1137.4</ele>
        <time>2013-02-03T13:04:20Z</time>
      </trkpt>
      <trkpt lat="42.865318" lon="1.077236">
        <ele>1135.9</ele>
        <time>2013-02-03T13:04:27Z</time>
      </trkpt>
      <trkpt lat="42.865402" lon="1.077343">
        <ele>1135.0</ele>
        <time>2013-02-03T13:04:35Z</time>
      </trkpt>
      <trkpt lat="42.865474" lon="1.077449">
        <ele>1133.5</ele>
        <time>2013-02-03T13:04:42Z</time>
      </trkpt>
      <trkpt lat="42.865529" lon="1.077588">
        <ele>1132.6</ele>
        <time>2013-02-03T13:04:50Z</time>
      </trkpt>
      <trkpt lat="42.865588" lon="1.077725">
        <ele>1131.1</ele>
        <time>2013-02-03T13:04:58Z</time>
      </trkpt>
      <trkpt lat="42.865631" lon="1.077858">
        <ele>1129.7</ele>
        <time>2013-02-03T13:05:06Z</time>
      </trkpt>
      <trkpt lat="42.865676" lon="1.077983">
        <ele>1128.2</ele>
        <time>2013-02-03T13:05:14Z</time>
      </trkpt>
      <trkpt lat="42.865726" lon="1.078121">
        <ele>1127.3</ele>
        <time>2013-02-03T13:05:22Z</time>
      </trkpt>
      <trkpt lat="42.865781" lon="1.078263">
        <ele>1126.3</ele>
        <time>2013-02-03T13:05:30Z</time>
      </trkpt>
      <trkpt lat="42.865835" lon="1.078386">
        <ele>1124.4</ele>
        <time>2013-02-03T13:05:38Z</time>
      </trkpt>
      <trkpt lat="42.865884" lon="1.078522">
        <ele>1123.0</ele>
        <time>2013-02-03T13:05:46Z</time>
      </trkpt>
      <trkpt lat="42.865940" lon="1.078662">
        <ele>1121.0</ele>
        <time>2013-02-03T13:05:54Z</time>
      </trkpt>
      <trkpt lat="42.865993" lon="1.078809">
        <ele>1119.6</ele>
        <time>2013-02-03T13:06:03Z</time>
      </trkpt>
      <trkpt lat="42.866030" lon="1.078970">
        <ele>1118.6</ele>
        <time>2013-02-03T13:06:12Z</time>
      </trkpt>
      <trkpt lat="42.866070" lon="1.079110">
        <ele>1117.2</ele>
        <time>2013-02-03T13:06:20Z</time>
      </trkpt>
      <trkpt lat="42.866097" lon="1.079276">
        <ele>1115.8</ele>
        <time>2013-02-03T13:06:29Z</time>
      </trkpt>
      <trkpt lat="42.866067" lon="1.079454">
        <ele>1114.3</ele>
        <time>2013-02-03T13:06:38Z</time>
      </trkpt>
      <trkpt lat="42.866020" lon="1.079613">
        <ele>1113.3</ele>
        <time>2013-02-03T13:06:48Z</time>
      </trkpt>
      <trkpt lat="42.865981" lon="1.079800">
        <ele>1111.4</ele>
        <time>2013-02-03T13:06:58Z</time>
      </trkpt>
      <trkpt lat="42.865894" lon="1.079953">
        <ele>1110.0</ele>
        <time>2013-02-03T13:07:09Z</time>
      </trkpt>
      <trkpt lat="42.865786" lon="1.080083">
        <ele>1107.6</ele>
        <time>2013-02-03T13:07:18Z</time>
      </trkpt>
      <trkpt lat="42.865667" lon="1.080167">
        <ele>1106.6</ele>
        <time>2013-02-03T13:07:28Z</time>
      </trkpt>
      <trkpt lat="42.865567" lon="1.080241">
        <ele>1104.2</ele>
        <time>2013-02-03T13:07:39Z</time>
      </trkpt>
      <trkpt lat="42.865440" lon="1.080300">
        <ele>1102.8</ele>
        <time>2013-02-03T13:07:49Z</time>
      </trkpt>
      <trkpt lat="42.865313" lon="1.080322">
        <ele>1101.3</ele>
        <time>2013-02-03T13:07:58Z</time>
      </trkpt>
      <trkpt lat="42.865182" lon="1.080335">
        <ele>1099.9</ele>
        <time>2013-02-03T13:08:06Z</time>
      </trkpt>
      <trkpt lat="42.865086" lon="1.080383">
        <ele>1098.4</ele>
        <time>2013-02-03T13:08:14Z</time>
      </trkpt>
      <trkpt lat="42.864998" lon="1.080491">
        <ele>1097.5</ele>
        <time>2013-02-03T13:08:23Z</time>
      </trkpt>
      <trkpt lat="42.864887" lon="1.080615">
        <ele>1096.0</ele>
        <time>2013-02-03T13:08:31Z</time>
      </trkpt>
      <trkpt lat="42.864792" lon="1.080727">
        <ele>1095.1</ele>
        <time>2013-02-03T13:08:39Z</time>
      </trkpt>
      <trkpt lat="42.864706" lon="1.080777">
        <ele>1093.6</ele>
        <time>2013-02-03T13:08:46Z</time>
      </trkpt>
      <trkpt lat="42.864626" lon="1.080862">
        <ele>1092.2</ele>
        <time>2013-02-03T13:08:53Z</time>
      </trkpt>
      <trkpt lat="42.864545" lon="1.080957">
        <ele>1091.2</ele>
        <time>2013-02-03T13:09:01Z</time>
      </trkpt>
      <trkpt lat="42.864450" lon="1.081062">
        <ele>1090.3</ele>
        <time>2013-02-03T13:09:09Z</time>
      </trkpt>
      <trkpt lat="42.864348" lon="1.081172">
        <ele>1088.8</ele>
        <time>2013-02-03T13:09:18Z</time>
      </trkpt>
      <trkpt lat="42.864247" lon="1.081258">
        <ele>1087.4</ele>
        <time>2013-02-03T13:09:27Z</time>
      </trkpt>
      <trkpt lat="42.864136" lon="1.081344">
        <ele>1085.9</ele>
        <time>2013-02-03T13:09:36Z</time>
      </trkpt>
      <trkpt lat="42.864047" lon="1.081390">
        <ele>1084.5</ele>
        <time>2013-02-03T13:09:45Z</time>
      </trkpt>
      <trkpt lat="42.863952" lon="1.081469">
        <ele>1083.1</ele>
        <time>2013-02-03T13:09:55Z</time>
      </trkpt>
      <trkpt lat="42.863846" lon="1.081542">
        <ele>1082.1</ele>
        <time>2013-02-03T13:10:04Z</time>
      </trkpt>
      <trkpt lat="42.863720" lon="1.081610">
        <ele>1079.7</ele>
        <time>2013-02-03T13:10:14Z</time>
      </trkpt>
      <trkpt lat="42.863596" lon="1.081659">
        <ele>1078.3</ele>
        <time>2013-02-03T13:10:23Z</time>
      </trkpt>
      <trkpt lat="42.863476" lon="1.081672">
        <ele>1077.3</ele>
        <time>2013-02-03T13:10:31Z</time>
      </trkpt>
      <trkpt lat="42.863351" lon="1.081715">
        <ele>1075.4</ele>
        <time>2013-02-03T13:10:41Z</time>
      </trkpt>
      <trkpt lat="42.863241" lon="1.081804">
        <ele>1073.9</ele>
        <time>2013-02-03T13:10:50Z</time>
      </trkpt>
      <trkpt lat="42.863139" lon="1.081878">
        <ele>1072.5</ele>
        <time>2013-02-03T13:10:57Z</time>
      </trkpt>
      <trkpt lat="42.863037" lon="1.081949">
        <ele>1071.5</ele>
        <time>2013-02-03T13:11:05Z</time>
      </trkpt>
      <trkpt lat="42.862942" lon="1.082026">
        <ele>1070.6</ele>
        <time>2013-02-03T13:11:12Z</time>
      </trkpt>
      <trkpt lat="42.862818" lon="1.082111">
        <ele>1069.6</ele>
        <time>2013-02-03T13:11:21Z</time>
      </trkpt>
      <trkpt lat="42.862676" lon="1.082210">
        <ele>1067.2</ele>
        <time>2013-02-03T13:11:30Z</time>
      </trkpt>
      <trkpt lat="42.862559" lon="1.082331">
        <ele>1065.8</ele>
        <time>2013-02-03T13:11:40Z</time>
      </trkpt>
      <trkpt lat="42.862453" lon="1.082404">
        <ele>1064.3</ele>
        <time>2013-02-03T13:11:48Z</time>
      </trkpt>
      <trkpt lat="42.862349" lon="1.082451">
        <ele>1063.4</ele>
        <time>2013-02-03T13:11:56Z</time>
      </trkpt>
      <trkpt lat="42.862254" lon="1.082519">
        <ele>1062.4</ele>
        <time>2013-02-03T13:12:04Z</time>
      </trkpt>
      <trkpt lat="42.862149" lon="1.082566">
        <ele>1061.4</ele>
        <time>2013-02-03T13:12:12Z</time>
      </trkpt>
      <trkpt lat="42.862041" lon="1.082609">
        <ele>1060.5</ele>
        <time>2013-02-03T13:12:20Z</time>
      </trkpt>
      <trkpt lat="42.861931" lon="1.082655">
        <ele>1059.0</ele>
        <time>2013-02-03T13:12:29Z</time>
      </trkpt>
      <trkpt lat="42.861824" lon="1.082786">
        <ele>1057.6</ele>
        <time>2013-02-03T13:12:40Z</time>
      </trkpt>
      <trkpt lat="42.861788" lon="1.082986">
        <ele>1056.2</ele>
        <time>2013-02-03T13:12:50Z</time>
      </trkpt>
      <trkpt lat="42.861847" lon="1.083093">
        <ele>1055.7</ele>
        <time>2013-02-03T13:12:58Z</time>
      </trkpt>
      <trkpt lat="42.861946" lon="1.083199">
        <ele>1054.7</ele>
        <time>2013-02-03T13:13:08Z</time>
      </trkpt>
      <trkpt lat="42.862012" lon="1.083331">
        <ele>1053.3</ele>
        <time>2013-02-03T13:13:16Z</time>
      </trkpt>
      <trkpt lat="42.862056" lon="1.083470">
        <ele>1052.3</ele>
        <time>2013-02-03T13:13:23Z</time>
      </trkpt>
      <trkpt lat="42.862081" lon="1.083613">
        <ele>1051.3</ele>
        <time>2013-02-03T13:13:30Z</time>
      </trkpt>
      <trkpt lat="42.862124" lon="1.083746">
        <ele>1049.9</ele>
        <time>2013-02-03T13:13:37Z</time>
      </trkpt>
      <trkpt lat="42.862166" lon="1.083885">
        <ele>1048.4</ele>
        <time>2013-02-03T13:13:45Z</time>
      </trkpt>
      <trkpt lat="42.862209" lon="1.084035">
        <ele>1047.5</ele>
        <time>2013-02-03T13:13:55Z</time>
      </trkpt>
      <trkpt lat="42.862263" lon="1.084181">
        <ele>1046.5</ele>
        <time>2013-02-03T13:14:05Z</time>
      </trkpt>
      <trkpt lat="42.862318" lon="1.084339">
        <ele>1046.1</ele>
        <time>2013-02-03T13:14:16Z</time>
      </trkpt>
      <trkpt lat="42.862373" lon="1.084458">
        <ele>1046.1</ele>
        <time>2013-02-03T13:14:39Z</time>
      </trkpt>
      <trkpt lat="42.862435" lon="1.084564">
        <ele>1045.6</ele>
        <time>2013-02-03T13:15:07Z</time>
      </trkpt>
      <trkpt lat="42.862505" lon="1.084693">
        <ele>1046.1</ele>
        <time>2013-02-03T13:15:20Z</time>
      </trkpt>
      <trkpt lat="42.862606" lon="1.084739">
        <ele>1045.6</ele>
        <time>2013-02-03T13:15:36Z</time>
      </trkpt>
      <trkpt lat="42.862724" lon="1.084780">
        <ele>1046.1</ele>
        <time>2013-02-03T13:15:53Z</time>
      </trkpt>
      <trkpt lat="42.862868" lon="1.084788">
        <ele>1046.1</ele>
        <time>2013-02-03T13:16:06Z</time>
      </trkpt>
      <trkpt lat="42.863001" lon="1.084817">
        <ele>1046.5</ele>
        <time>2013-02-03T13:16:18Z</time>
      </trkpt>
      <trkpt lat="42.863115" lon="1.084848">
        <ele>1047.0</ele>
        <time>2013-02-03T13:16:35Z</time>
      </trkpt>
      <trkpt lat="42.863262" lon="1.084941">
        <ele>1047.5</ele>
        <time>2013-02-03T13:16:49Z</time>
      </trkpt>
      <trkpt lat="42.863356" lon="1.085034">
        <ele>1047.5</ele>
        <time>2013-02-03T13:17:01Z</time>
      </trkpt>
      <trkpt lat="42.863486" lon="1.085084">
        <ele>1048.0</ele>
        <time>2013-02-03T13:17:10Z</time>
      </trkpt>
      <trkpt lat="42.863564" lon="1.085144">
        <ele>1048.0</ele>
        <time>2013-02-03T13:17:20Z</time>
      </trkpt>
      <trkpt lat="42.863656" lon="1.085217">
        <ele>1048.9</ele>
        <time>2013-02-03T13:17:30Z</time>
      </trkpt>
      <trkpt lat="42.863764" lon="1.085287">
        <ele>1048.4</ele>
        <time>2013-02-03T13:17:40Z</time>
      </trkpt>
      <trkpt lat="42.863892" lon="1.085442">
        <ele>1048.9</ele>
        <time>2013-02-03T13:18:16Z</time>
      </trkpt>
    </trkseg>
  </trk>
</gpx>

